Address 0x070799df460664d5306c42c5945e90ad479ef054

 
Txn Hash
Block
From
To
Value [Txn Fee]
0x9b8ce8d715bd368319531e183273d39c5d973f26b23ccbcca18e716077106abf82693662021-06-13 19:10:512 hrs 28 mins ago0x070799df460664d5306c42c5945e90ad479ef054OUT PancakeSwap: Router v20.0019 BNB0.00089118
0xb2a199763dce3921157385d9a2ff1454fafa5f88871cdd43d016ba0764e7d75282693352021-06-13 19:09:182 hrs 30 mins ago0x070799df460664d5306c42c5945e90ad479ef054OUT PancakeSwap: Router v20.04 BNB0.00084909
0x4b4f62b12a507e8eec612748003c80014d5b2d5eba3bbd529b81b1c5f89090d682692502021-06-13 19:05:032 hrs 34 mins ago0x070799df460664d5306c42c5945e90ad479ef054OUT PancakeSwap: Router v20.02 BNB0.002707075
0x88ea4cf90ba8ca070dad6342b937e54838549b05edf4538ba0939fd807e4abaa82688212021-06-13 18:43:362 hrs 55 mins ago0x070799df460664d5306c42c5945e90ad479ef054OUT 0x04dcbb81a4e430676ce2739ab250ee34a7ce95510 BNB0.00022243
0x73e35a86b3e45026fbc75cae5111639e3a8a778133dea02394aea7c9e99f0cd382688062021-06-13 18:42:512 hrs 56 mins ago0x070799df460664d5306c42c5945e90ad479ef054OUT PancakeSwap: Router v20.02 BNB0.00067208
0x6787d37a2d7df94e30c49a69cc8df3cba58d12aec9758b7ee97bb557deabcb1e82687482021-06-13 18:39:572 hrs 59 mins ago0x070799df460664d5306c42c5945e90ad479ef054OUT 0x021a6fcffb7c67c5f8636f2baca4119d6e793c270 BNB0.00022274
0x0101845601ce361946fce9621ac958623a696185e31ca903ad138845d3ee13be82687282021-06-13 18:38:573 hrs ago0x070799df460664d5306c42c5945e90ad479ef054OUT PancakeSwap: Router v20.02 BNB0.001001545
0x8cd457bf9b0fe7948f4ca4d2f9d408022fb506b78312a831f4df5062ae2359de82678542021-06-13 17:53:363 hrs 45 mins ago0x070799df460664d5306c42c5945e90ad479ef054OUT 0x7893cf7c445ac9947c1dab0cdcd75ac77eb693090 BNB0.000222735
0x8033554aed527599e9db1b97785eac6d8c6faf9418c551790f14595dd9ce300882678452021-06-13 17:53:093 hrs 46 mins ago0x070799df460664d5306c42c5945e90ad479ef054OUT PancakeSwap: Router v20.01 BNB0.000682375
0x9ad5e85fa55a9cb7ee26c300fdabdc2270b9022356a63cd224187cd1170fd61a82676462021-06-13 17:43:123 hrs 56 mins ago0x070799df460664d5306c42c5945e90ad479ef054OUT 0x444d771285ab553bc887719069208a73063d88770 BNB0.00012911
0xa0ed8444d67e4b879d8f48087fdf1410a42b65f44effb4dc52d84d7205af1a3982653722021-06-13 15:47:515 hrs 51 mins ago0x070799df460664d5306c42c5945e90ad479ef054OUT 0x444d771285ab553bc887719069208a73063d88770 BNB0.00022511
0xa2cb24225c73dd3eb3d7f5e39012d58171756d3751866cd92b16b1045e1b4f7e82653432021-06-13 15:46:245 hrs 53 mins ago0x070799df460664d5306c42c5945e90ad479ef054OUT 0xa55f58fc1a77c9ca89d78bd8c5254394bc4929610 BNB0.00012674
0x4c77c466cb3b709f0071fe763bd1df90d1d827419e20d982c14dbcdc9fef3dfb82653152021-06-13 15:45:005 hrs 54 mins ago0x070799df460664d5306c42c5945e90ad479ef054OUT 0xa55f58fc1a77c9ca89d78bd8c5254394bc4929610 BNB0.00022274
0xd5feb808c9ab1cd2d0ae72b9c30e04ecfd4a4805c7141e24e66ebfc1671fbc7982652982021-06-13 15:44:095 hrs 55 mins ago0x070799df460664d5306c42c5945e90ad479ef054OUT 0xfab5ea3975b8b1bd4ce321dfbf5657d417a966270 BNB0.00012871
0x0cc25e9d334b87d818d30ebe359ec701e65dde6785c39fb2fdd94ff51382f22482652752021-06-13 15:43:005 hrs 56 mins ago0x070799df460664d5306c42c5945e90ad479ef054OUT 0xfab5ea3975b8b1bd4ce321dfbf5657d417a966270 BNB0.00022471
0x28d8657165d9e4580a96bdca8859d08ce75f54a2d0d4a3401e11ead136bab60d82652332021-06-13 15:40:545 hrs 58 mins ago0x070799df460664d5306c42c5945e90ad479ef054OUT PancakeSwap: Router v20.02 BNB0.00062053
0xea828615ffbae2475f0c735fed8a71e5e02c5fd4eb2527399564c0eec941d4f782650322021-06-13 15:30:516 hrs 8 mins ago0x070799df460664d5306c42c5945e90ad479ef054OUT 0x1f7e0b410599bdd2a7136974f95fa547fdc288e30 BNB0.00022284
0x6b92e9d8d58ed04163f53b0979e5c891710370429828562ed43040a99d8f5f3a82649832021-06-13 15:28:246 hrs 11 mins ago0x070799df460664d5306c42c5945e90ad479ef054OUT PancakeSwap: Router v20.02 BNB0.000848295
0xf0049faf96ba3726f0130d99e31fb944e405ab87b1d804339b1c59a28233f6cf82629722021-06-13 13:47:317 hrs 52 mins ago0x070799df460664d5306c42c5945e90ad479ef054OUT PancakeSwap: Router v20.035 BNB0.00096624
0x747feb445d4a82bd8c2b3ce1de698afaa2e738b0a82e81c9824ec2347c07212f82627582021-06-13 13:36:498 hrs 2 mins ago0x070799df460664d5306c42c5945e90ad479ef054OUT PancakeSwap: Router v20.01 BNB0.000608155
0x569d928a71c779fa72f77f08415ea739befc135e0df48dac8fbb8feb9ef9767882627422021-06-13 13:36:018 hrs 3 mins ago0x070799df460664d5306c42c5945e90ad479ef054OUT PancakeSwap: Router v20.012 BNB0.000156745
0x7880f77c5b45fc814630dd6a5aa2c2eec4ead704f25a33b87f0c9811d81bccf782627182021-06-13 13:34:498 hrs 4 mins ago0x070799df460664d5306c42c5945e90ad479ef054OUT PancakeSwap: Router v20.009 BNB0.000156745
0xe4c92f262e0e96eb9a21bc72895b52dc238f7fbda3911a725c9a7c092beb169582623242021-06-13 13:15:048 hrs 24 mins ago0x070799df460664d5306c42c5945e90ad479ef054OUT PancakeSwap: Router v20.038 BNB0.000683155
0xc37dbb25caebf15b1bcc9e21f7d449bf30fa24bd847674cd39d99b0ec195ad5982619802021-06-13 12:57:228 hrs 42 mins ago0x1d40b233cdf2cc0cdc347d5401d5b02c2831a0c1 IN 0x070799df460664d5306c42c5945e90ad479ef0540.23968925 BNB0.00021
0x31ff4f51c91dd2bfb69272d825741767b40f64aa7127bd8405c1cd623607dd7482618982021-06-13 12:53:158 hrs 46 mins ago0x070799df460664d5306c42c5945e90ad479ef054OUT 0x4388ca448baf6785bf1222a3e8e266536548ed750 BNB0.00012652
[ Download CSV Export 
Latest 7 internal transactions
Parent Txn Hash Block From To Value
0xa191ad931cff03ac8723abac4257cd9bc94770ce42ef5e2137a11aba138640eb82498962021-06-13 2:47:1718 hrs 52 mins ago PancakeSwap: Router v20x070799df460664d5306c42c5945e90ad479ef0540.000000132754040814 BNB
0x1d66b0042911177e4566ead5093bf62ff9e652e336f8ee7ee00226b6a989680d82498872021-06-13 2:46:5018 hrs 52 mins ago PancakeSwap: Router v20x070799df460664d5306c42c5945e90ad479ef0540.012968855519975974 BNB
0xe5620dd7433b0b95df03ffe3bfa3a31ca49d067f0bf920d42710ba9f1bd4920282465022021-06-12 23:56:1421 hrs 43 mins ago PancakeSwap: Router v20x070799df460664d5306c42c5945e90ad479ef0540.000059539356334516 BNB
0x2ca0a1dc04deeb7e556b870f0c01857d97c619d82d20ec22f7630c20508e09e482457302021-06-12 23:17:3722 hrs 21 mins ago PancakeSwap: Router v20x070799df460664d5306c42c5945e90ad479ef0540.000068056321293999 BNB
0x6b72652ffdbe08a7c2ddb5cf970eb9709f9a39c773130dc5829ea7086aeb4ca782367202021-06-12 15:42:291 day 5 hrs ago 0xc590175e458b83680867afd273527ff58f74c02b0x070799df460664d5306c42c5945e90ad479ef0540.047469800482030974 BNB
0x743ed6042024256c4df1479a8ea5aae0d39a6e1aaf23fcb68e3677fbae65e39882186502021-06-12 0:36:421 day 21 hrs ago 0xc590175e458b83680867afd273527ff58f74c02b0x070799df460664d5306c42c5945e90ad479ef0540.009948739533122552 BNB
0x8d41b178db0ff50a6b25ceb3edeba70a3bfe187dd0329855d1122f09931be0b582132532021-06-11 20:06:382 days 1 hr ago 0xc590175e458b83680867afd273527ff58f74c02b0x070799df460664d5306c42c5945e90ad479ef0540.013876820477264384 BNB
[ Download CSV Export 
Loading

Contract Name:
0 BNB

Compiler Version
0

Optimization Enabled:
0 BNB

Other Settings:
-NA-
Block Transaction Gas Used Reward
Age Block Fee Address BC Fee Address Voting Power Jailed Incoming
Block Uncle Number Difficulty Gas Used Reward
Loading
Loading
Make sure to use the "Vote Down" button for any spammy posts, and the "Vote Up" for interesting conversations.